Bridgeport, Connecticut
Current Conditions -  °F | °C
As of 1:52 AM on Friday 28 Nov 2014 (Local Time) from KBDR Reporting Station
Overcast Overcast  
Wind Chill: 26°   Ceiling: 6500
Heat Index: 33°   Visibility: 10mi
Dew Point: 26°   Wind: 8mph
Humidity: 75%   Direction: 310°NW
Pressure: 30.04"   Gusts: NA
Location:  41.18°N, 73.19°W
Report Text: KBDR 280652Z AUTO 31007KT 10SM OVC065 01/M03 A3004 RMK AO2 SLP173 T00061033
Loading
Personal Weather Stations






























Interactive Weather Map New forecast layout! Learn more

10-Day Weather Forecast

Advertisements
Track Severe Weather on mobile